createdAt,value
2019-05-13T00:01:23.765Z,99.90
2019-05-13T00:06:29.049Z,99.90
2019-05-13T00:11:34.629Z,99.90
2019-05-13T00:16:59.453Z,99.90
2019-05-13T00:22:04.519Z,99.90
2019-05-13T00:27:29.168Z,99.90
2019-05-13T00:32:34.375Z,99.90
2019-05-13T00:37:39.315Z,99.90
2019-05-13T00:42:44.506Z,99.90
2019-05-13T00:47:49.818Z,99.90
2019-05-13T00:52:54.932Z,99.90
2019-05-13T00:58:00.033Z,99.90
2019-05-13T01:03:05.379Z,99.90
2019-05-13T01:08:23.632Z,99.90
2019-05-13T01:13:43.178Z,99.90
2019-05-13T01:18:48.306Z,99.90
2019-05-13T01:23:54.357Z,99.90
2019-05-13T01:28:59.615Z,99.90
2019-05-13T01:34:05.201Z,99.90
2019-05-13T01:39:10.297Z,99.90
2019-05-13T01:44:15.401Z,99.90
2019-05-13T01:49:20.614Z,99.90
2019-05-13T01:54:25.807Z,99.90
2019-05-13T01:59:30.852Z,99.90
2019-05-13T02:04:36.071Z,99.90
2019-05-13T02:09:53.473Z,99.90
2019-05-13T02:14:58.788Z,99.90
2019-05-13T02:20:05.987Z,99.90
2019-05-13T02:25:13.584Z,99.90
2019-05-13T02:30:18.187Z,99.90
2019-05-13T02:35:23.364Z,99.90
2019-05-13T02:40:47.698Z,99.90
2019-05-13T02:45:53.896Z,99.90
2019-05-13T02:51:03.341Z,99.90
2019-05-13T02:56:06.808Z,99.90
2019-05-13T03:01:12.652Z,99.90
2019-05-13T03:06:18.175Z,99.90
2019-05-13T03:11:23.542Z,99.90
2019-05-13T03:16:32.977Z,99.90
2019-05-13T03:21:38.230Z,99.90
2019-05-13T03:26:43.450Z,99.90
2019-05-13T03:31:48.639Z,99.90
2019-05-13T03:36:56.897Z,99.90
2019-05-13T03:42:03.605Z,99.90
2019-05-13T03:47:12.759Z,99.90
2019-05-13T03:52:17.844Z,99.90
2019-05-13T03:57:23.359Z,99.90
2019-05-13T04:02:28.677Z,99.90
2019-05-13T04:07:45.809Z,99.90
2019-05-13T04:12:52.729Z,99.90
2019-05-13T04:18:02.378Z,99.90
2019-05-13T04:23:05.810Z,99.90
2019-05-13T04:28:13.329Z,99.90
2019-05-13T04:33:18.735Z,99.90
2019-05-13T04:38:24.012Z,99.90
2019-05-13T04:43:33.717Z,99.90
2019-05-13T04:48:39.400Z,99.90
2019-05-13T04:53:44.050Z,99.90
2019-05-13T04:58:52.465Z,99.90
2019-05-13T05:04:13.975Z,99.90
2019-05-13T05:09:32.841Z,99.90
2019-05-13T05:14:56.206Z,99.90
2019-05-13T05:20:07.295Z,99.60
2019-05-13T05:25:34.692Z,99.70
2019-05-13T05:31:02.343Z,99.80
2019-05-13T05:36:24.505Z,99.10
2019-05-13T05:41:31.702Z,99.10
2019-05-13T05:46:39.577Z,98.30
2019-05-13T05:51:47.036Z,97.90
2019-05-13T05:56:54.406Z,98.00
2019-05-13T06:02:02.050Z,97.70
2019-05-13T06:07:06.874Z,97.50
2019-05-13T06:12:13.266Z,97.40
2019-05-13T06:17:18.383Z,95.90
2019-05-13T06:22:23.562Z,96.30
2019-05-13T06:27:28.779Z,95.50
2019-05-13T06:32:33.921Z,95.40
2019-05-13T06:37:41.290Z,95.80
2019-05-13T06:42:45.592Z,94.50
2019-05-13T06:47:52.152Z,93.30
2019-05-13T06:52:57.227Z,93.10
2019-05-13T06:58:02.492Z,93.60
2019-05-13T07:03:07.602Z,93.20
2019-05-13T07:08:12.820Z,92.70
2019-05-13T07:13:17.945Z,93.20
2019-05-13T07:18:23.208Z,91.70
2019-05-13T07:23:51.077Z,92.00
2019-05-13T07:28:54.316Z,93.30
2019-05-13T07:34:02.079Z,91.60
2019-05-13T07:39:08.541Z,91.40
2019-05-13T07:44:13.912Z,91.80
2019-05-13T07:49:19.284Z,91.00
2019-05-13T07:54:24.690Z,87.50
2019-05-13T07:59:31.893Z,87.90
2019-05-13T08:04:37.890Z,84.10
2019-05-13T08:09:42.792Z,85.70
2019-05-13T08:14:47.958Z,85.60
2019-05-13T08:19:52.943Z,87.50
2019-05-13T08:24:57.863Z,85.60
2019-05-13T08:30:03.471Z,84.90
2019-05-13T08:35:11.838Z,78.90
2019-05-13T08:40:19.945Z,77.60
2019-05-13T08:45:23.508Z,76.70
2019-05-13T08:50:28.907Z,75.90
2019-05-13T08:55:34.093Z,75.20
2019-05-13T09:00:48.329Z,77.30
2019-05-13T09:05:54.577Z,76.60
2019-05-13T09:11:01.589Z,77.20
2019-05-13T09:16:07.362Z,74.90
2019-05-13T09:21:12.277Z,73.80
2019-05-13T09:26:17.574Z,76.20
2019-05-13T09:31:22.915Z,76.00
2019-05-13T09:36:28.128Z,72.10
2019-05-13T09:41:40.585Z,74.60
2019-05-13T09:46:42.469Z,69.20
2019-05-13T09:51:47.512Z,70.40
2019-05-13T09:56:52.457Z,68.90
2019-05-13T10:01:57.589Z,67.60
2019-05-13T10:07:02.964Z,69.10
2019-05-13T10:12:08.162Z,69.40
2019-05-13T10:17:13.380Z,71.20
2019-05-13T10:22:18.909Z,67.20
2019-05-13T10:27:25.048Z,65.40
2019-05-13T10:32:32.227Z,65.30
2019-05-13T10:37:37.002Z,65.00
2019-05-13T10:42:43.318Z,63.50
2019-05-13T10:47:51.439Z,66.90
2019-05-13T10:52:55.889Z,62.60
2019-05-13T10:58:02.420Z,62.50
2019-05-13T11:03:07.841Z,60.60
2019-05-13T11:08:13.156Z,59.70
2019-05-13T11:13:18.106Z,58.30
2019-05-13T11:18:24.467Z,60.50
2019-05-13T11:23:32.217Z,58.30
2019-05-13T11:28:36.507Z,56.10
2019-05-13T11:33:42.518Z,59.50
2019-05-13T11:38:48.003Z,56.00
2019-05-13T11:44:11.996Z,56.00
2019-05-13T11:49:02.549Z,57.40
2019-05-13T11:54:06.688Z,56.80
2019-05-13T11:59:13.972Z,60.30
2019-05-13T12:04:18.943Z,54.70
2019-05-13T12:09:24.315Z,56.90
2019-05-13T12:15:16.264Z,53.10
2019-05-13T12:19:36.070Z,56.10
2019-05-13T12:24:42.267Z,54.40
2019-05-13T12:29:47.878Z,54.60
2019-05-13T12:34:53.055Z,54.50
2019-05-13T12:39:58.271Z,54.40
2019-05-13T12:45:09.934Z,53.40
2019-05-13T12:50:13.538Z,54.00
2019-05-13T12:55:18.888Z,53.50
2019-05-13T13:00:25.347Z,56.10
2019-05-13T13:05:36.212Z,53.10
2019-05-13T13:10:37.534Z,53.50
2019-05-13T13:15:48.405Z,54.60
2019-05-13T13:20:57.900Z,53.20
2019-05-13T13:25:57.331Z,52.40
2019-05-13T13:31:04.155Z,50.00
2019-05-13T13:36:14.198Z,51.40
2019-05-13T13:41:22.230Z,51.20
2019-05-13T13:46:37.078Z,53.60
2019-05-13T13:51:34.011Z,55.50
2019-05-13T13:56:36.938Z,49.20
2019-05-13T14:01:41.975Z,50.80
2019-05-13T14:11:53.734Z,50.90
2019-05-13T14:16:58.712Z,53.80
2019-05-13T14:22:03.596Z,56.20
2019-05-13T14:27:08.852Z,53.90
2019-05-13T14:32:13.852Z,53.60
2019-05-13T14:37:18.812Z,55.30
2019-05-13T14:42:24.122Z,55.10
2019-05-13T14:47:29.332Z,55.70
2019-05-13T14:52:34.672Z,54.60
2019-05-13T14:57:41.892Z,53.30
2019-05-13T15:02:46.950Z,54.20
2019-05-13T15:07:52.815Z,53.90
2019-05-13T15:12:58.460Z,54.50
2019-05-13T15:18:03.700Z,54.60
2019-05-13T15:23:08.703Z,53.80
2019-05-13T15:28:14.068Z,55.10
2019-05-13T15:33:21.369Z,54.30
2019-05-13T15:38:26.100Z,54.40
2019-05-13T15:43:31.847Z,54.80
2019-05-13T15:48:37.665Z,54.40
2019-05-13T15:53:43.739Z,55.20
2019-05-13T15:58:48.933Z,55.50
2019-05-13T16:03:54.140Z,56.50
2019-05-13T16:08:59.951Z,57.60
2019-05-13T16:14:06.210Z,56.70
2019-05-13T16:19:11.093Z,57.40
2019-05-13T16:24:16.330Z,58.10
2019-05-13T16:29:22.431Z,56.70
2019-05-13T16:34:27.913Z,58.20
2019-05-13T16:39:33.129Z,59.60
2019-05-13T16:44:38.362Z,60.20
2019-05-13T16:49:43.288Z,63.60
2019-05-13T16:54:48.675Z,63.80
2019-05-13T16:59:53.925Z,63.90
2019-05-13T17:10:09.154Z,63.90
2019-05-13T17:15:14.388Z,64.80
2019-05-13T17:20:21.480Z,64.60
2019-05-13T17:25:27.234Z,64.50
2019-05-13T17:30:33.034Z,66.00
2019-05-13T17:35:38.556Z,64.90
2019-05-13T17:40:49.269Z,63.40
2019-05-13T17:45:52.298Z,63.90
2019-05-13T17:50:57.794Z,64.20
2019-05-13T17:56:03.064Z,65.60
2019-05-13T18:01:11.926Z,66.30
2019-05-13T18:06:16.675Z,68.60
2019-05-13T18:11:22.090Z,67.60
2019-05-13T18:16:27.833Z,68.70
2019-05-13T18:21:33.195Z,69.80
2019-05-13T18:26:38.834Z,71.70
2019-05-13T18:31:44.573Z,73.00
2019-05-13T18:36:51.624Z,73.20
2019-05-13T18:41:56.553Z,75.00
2019-05-13T18:47:01.813Z,76.10
2019-05-13T18:52:07.246Z,77.40
2019-05-13T18:57:13.075Z,78.30
2019-05-13T19:02:18.198Z,78.90
2019-05-13T19:07:25.156Z,79.90
2019-05-13T19:12:31.539Z,80.10
2019-05-13T19:17:37.117Z,80.80
2019-05-13T19:22:42.317Z,81.10
2019-05-13T19:32:52.073Z,81.80
2019-05-13T19:37:57.810Z,82.00
2019-05-13T19:43:03.531Z,83.90
2019-05-13T19:48:11.620Z,84.60
2019-05-13T19:53:16.490Z,84.90
2019-05-13T19:58:21.763Z,84.80
2019-05-13T20:03:27.291Z,86.10
2019-05-13T20:08:33.090Z,87.30
2019-05-13T20:13:38.530Z,86.40
2019-05-13T20:18:43.816Z,87.90
2019-05-13T20:23:49.296Z,88.40
2019-05-13T20:28:54.501Z,89.60
2019-05-13T20:34:01.682Z,88.70
2019-05-13T20:39:08.260Z,86.50
2019-05-13T20:44:13.540Z,85.20
2019-05-13T20:49:19.186Z,85.60
2019-05-13T20:54:24.700Z,85.30
2019-05-13T20:59:32.008Z,85.60
2019-05-13T21:04:37.090Z,86.00
2019-05-13T21:09:42.447Z,86.80
2019-05-13T21:14:48.010Z,88.50
2019-05-13T21:20:01.065Z,90.30
2019-05-13T21:25:02.135Z,90.80
2019-05-13T21:30:08.570Z,90.90
2019-05-13T21:35:14.650Z,91.80
2019-05-13T21:40:21.726Z,92.50
2019-05-13T21:45:27.620Z,92.70
2019-05-13T21:50:37.172Z,93.10
2019-05-13T21:55:41.414Z,93.50
2019-05-13T22:00:47.872Z,94.00
2019-05-13T22:05:53.025Z,94.70
2019-05-13T22:10:58.523Z,95.40
2019-05-13T22:16:03.849Z,95.90
2019-05-13T22:21:11.685Z,96.20
2019-05-13T22:26:16.786Z,96.50
2019-05-13T22:31:22.410Z,97.00
2019-05-13T22:36:28.071Z,96.90
2019-05-13T22:41:33.493Z,97.10
2019-05-13T22:46:41.101Z,97.10
2019-05-13T22:51:45.634Z,96.90
2019-05-13T22:56:52.220Z,97.00
2019-05-13T23:01:57.811Z,97.10
2019-05-13T23:07:03.159Z,97.20
2019-05-13T23:12:08.096Z,97.30
2019-05-13T23:17:13.445Z,97.50
2019-05-13T23:22:18.588Z,97.50
2019-05-13T23:27:23.775Z,97.70
2019-05-13T23:32:28.946Z,97.70
2019-05-13T23:37:34.109Z,97.80
2019-05-13T23:42:39.329Z,97.80
2019-05-13T23:47:44.598Z,97.90
2019-05-13T23:52:51.214Z,98.10
2019-05-13T23:57:56.730Z,98.30
